createdAt,value
2018-04-22T00:00:48.892Z,14.23
2018-04-22T00:01:48.852Z,14.23
2018-04-22T00:02:48.850Z,14.21
2018-04-22T00:03:48.804Z,14.21
2018-04-22T00:04:48.821Z,14.23
2018-04-22T00:05:48.773Z,14.28
2018-04-22T00:06:48.735Z,14.19
2018-04-22T00:07:48.723Z,14.19
2018-04-22T00:08:48.688Z,14.12
2018-04-22T00:09:48.665Z,14.11
2018-04-22T00:10:48.660Z,14.13
2018-04-22T00:11:48.616Z,14.08
2018-04-22T00:12:48.601Z,14.16
2018-04-22T00:13:48.582Z,14.03
2018-04-22T00:14:48.547Z,14.08
2018-04-22T00:15:48.535Z,14.08
2018-04-22T00:16:48.507Z,14.09
2018-04-22T00:17:48.507Z,13.99
2018-04-22T00:18:48.449Z,14.06
2018-04-22T00:19:48.455Z,14.08
2018-04-22T00:20:48.436Z,14.05
2018-04-22T00:21:48.388Z,14.05
2018-04-22T00:22:48.363Z,14.08
2018-04-22T00:23:48.349Z,13.95
2018-04-22T00:24:48.312Z,13.97
2018-04-22T00:25:48.288Z,13.91
2018-04-22T00:26:48.266Z,13.88
2018-04-22T00:27:48.250Z,14.01
2018-04-22T00:28:48.215Z,13.94
2018-04-22T00:29:48.197Z,13.87
2018-04-22T00:30:48.170Z,13.87
2018-04-22T00:31:48.144Z,13.91
2018-04-22T00:32:48.123Z,13.87
2018-04-22T00:33:48.100Z,13.78
2018-04-22T00:34:48.083Z,13.88
2018-04-22T00:35:48.054Z,13.86
2018-04-22T00:36:48.028Z,13.69
2018-04-22T00:37:48.004Z,13.81
2018-04-22T00:38:47.983Z,13.70
2018-04-22T00:39:47.960Z,13.68
2018-04-22T00:40:47.948Z,13.75
2018-04-22T00:41:47.910Z,13.75
2018-04-22T00:42:47.883Z,13.81
2018-04-22T00:43:47.860Z,13.75
2018-04-22T00:44:47.835Z,13.76
2018-04-22T00:45:47.812Z,13.84
2018-04-22T00:46:47.805Z,13.72
2018-04-22T00:47:47.770Z,13.69
2018-04-22T00:48:47.748Z,13.72
2018-04-22T00:49:47.747Z,13.79
2018-04-22T00:50:47.701Z,13.68
2018-04-22T00:51:47.675Z,13.72
2018-04-22T00:52:47.656Z,13.68
2018-04-22T00:53:47.636Z,13.69
2018-04-22T00:54:47.600Z,13.73
2018-04-22T00:55:47.582Z,13.70
2018-04-22T00:56:47.559Z,13.63
2018-04-22T00:57:47.526Z,13.63
2018-04-22T00:58:47.505Z,13.66
2018-04-22T00:59:47.483Z,13.63
2018-04-22T01:00:47.469Z,13.62
2018-04-22T01:01:47.434Z,13.62
2018-04-22T01:02:47.418Z,13.60
2018-04-22T01:03:47.398Z,13.60
2018-04-22T01:04:47.371Z,13.60
2018-04-22T01:05:47.339Z,13.53
2018-04-22T01:06:47.318Z,13.44
2018-04-22T01:07:47.293Z,13.50
2018-04-22T01:08:47.270Z,13.45
2018-04-22T01:09:47.248Z,13.42
2018-04-22T01:10:47.230Z,13.42
2018-04-22T01:11:47.193Z,13.35
2018-04-22T01:12:47.180Z,13.44
2018-04-22T01:13:47.154Z,13.40
2018-04-22T01:14:47.130Z,13.45
2018-04-22T01:15:47.117Z,13.37
2018-04-22T01:16:47.080Z,13.36
2018-04-22T01:17:47.058Z,13.37
2018-04-22T01:18:47.034Z,13.36
2018-04-22T01:19:47.004Z,13.31
2018-04-22T01:20:46.983Z,13.32
2018-04-22T01:21:46.957Z,13.36
2018-04-22T01:22:46.939Z,13.29
2018-04-22T01:23:46.922Z,13.35
2018-04-22T01:24:46.894Z,13.37
2018-04-22T01:25:46.870Z,13.31
2018-04-22T01:26:46.841Z,13.28
2018-04-22T01:27:46.813Z,13.13
2018-04-22T01:28:46.808Z,13.19
2018-04-22T01:29:46.772Z,13.25
2018-04-22T01:30:46.757Z,13.21
2018-04-22T01:31:46.726Z,13.27
2018-04-22T01:32:46.698Z,13.28
2018-04-22T01:33:46.676Z,13.21
2018-04-22T01:34:46.657Z,13.27
2018-04-22T01:35:46.628Z,13.25
2018-04-22T01:36:46.602Z,13.28
2018-04-22T01:37:46.581Z,13.24
2018-04-22T01:38:46.556Z,13.25
2018-04-22T01:39:46.538Z,13.13
2018-04-22T01:40:46.506Z,13.21
2018-04-22T01:41:46.489Z,13.20
2018-04-22T01:42:46.458Z,13.20
2018-04-22T01:43:46.440Z,13.24
2018-04-22T01:44:46.417Z,13.27
2018-04-22T01:45:46.394Z,13.27
2018-04-22T01:46:46.438Z,13.21
2018-04-22T01:47:46.348Z,13.28
2018-04-22T01:48:46.319Z,13.16
2018-04-22T01:49:46.296Z,13.16
2018-04-22T01:50:46.281Z,13.16
2018-04-22T01:51:46.242Z,13.14
2018-04-22T01:52:46.228Z,13.02
2018-04-22T01:53:46.200Z,13.20
2018-04-22T01:54:46.172Z,13.10
2018-04-22T01:55:46.153Z,13.09
2018-04-22T01:56:46.126Z,13.11
2018-04-22T01:57:46.109Z,13.06
2018-04-22T01:58:46.070Z,13.03
2018-04-22T01:59:46.060Z,13.06
2018-04-22T02:00:46.031Z,12.94
2018-04-22T02:01:45.999Z,12.91
2018-04-22T02:02:45.991Z,12.92
2018-04-22T02:03:45.953Z,12.99
2018-04-22T02:04:45.931Z,13.01
2018-04-22T02:05:45.909Z,12.98
2018-04-22T02:06:45.884Z,12.99
2018-04-22T02:07:45.863Z,12.95
2018-04-22T02:08:45.832Z,12.94
2018-04-22T02:09:45.810Z,12.96
2018-04-22T02:10:45.789Z,12.92
2018-04-22T02:11:45.761Z,12.94
2018-04-22T02:12:45.742Z,12.94
2018-04-22T02:13:45.723Z,12.99
2018-04-22T02:14:45.693Z,12.96
2018-04-22T02:15:45.666Z,13.01
2018-04-22T02:16:45.645Z,12.96
2018-04-22T02:17:45.618Z,13.01
2018-04-22T02:18:45.589Z,13.01
2018-04-22T02:19:45.571Z,12.99
2018-04-22T02:20:45.548Z,12.94
2018-04-22T02:21:45.525Z,12.92
2018-04-22T02:22:45.499Z,12.92
2018-04-22T02:23:45.474Z,12.94
2018-04-22T02:24:45.454Z,12.96
2018-04-22T02:25:45.423Z,13.01
2018-04-22T02:26:45.422Z,13.01
2018-04-22T02:27:45.373Z,13.02
2018-04-22T02:28:45.358Z,13.03
2018-04-22T02:29:45.337Z,12.96
2018-04-22T02:30:45.299Z,12.91
2018-04-22T02:31:45.283Z,12.84
2018-04-22T02:32:45.251Z,12.83
2018-04-22T02:33:45.232Z,12.80
2018-04-22T02:34:45.206Z,12.78
2018-04-22T02:35:45.183Z,12.77
2018-04-22T02:36:45.160Z,12.74
2018-04-22T02:37:45.140Z,12.70
2018-04-22T02:38:45.106Z,12.76
2018-04-22T02:39:45.092Z,12.73
2018-04-22T02:40:45.057Z,12.74
2018-04-22T02:41:45.035Z,12.69
2018-04-22T02:42:45.015Z,12.63
2018-04-22T02:43:44.993Z,12.71
2018-04-22T02:44:44.961Z,12.70
2018-04-22T02:45:44.942Z,12.76
2018-04-22T02:46:44.914Z,12.62
2018-04-22T02:47:44.886Z,12.69
2018-04-22T02:48:44.871Z,12.65
2018-04-22T02:49:44.848Z,12.73
2018-04-22T02:50:44.828Z,12.61
2018-04-22T02:51:44.803Z,12.62
2018-04-22T02:52:44.775Z,12.69
2018-04-22T02:53:44.750Z,12.56
2018-04-22T02:54:44.725Z,12.71
2018-04-22T02:55:44.706Z,12.69
2018-04-22T02:56:44.676Z,12.74
2018-04-22T02:57:44.645Z,12.71
2018-04-22T02:58:44.633Z,12.74
2018-04-22T02:59:44.594Z,12.76
2018-04-22T03:00:44.579Z,12.77
2018-04-22T03:01:44.554Z,12.69
2018-04-22T03:02:44.528Z,12.74
2018-04-22T03:03:44.558Z,12.77
2018-04-22T03:04:44.474Z,12.80
2018-04-22T03:05:44.455Z,12.74
2018-04-22T03:06:44.433Z,12.61
2018-04-22T03:07:44.402Z,12.66
2018-04-22T03:08:44.385Z,12.61
2018-04-22T03:09:44.359Z,12.61
2018-04-22T03:10:44.333Z,12.62
2018-04-22T03:11:44.310Z,12.62
2018-04-22T03:12:44.301Z,12.61
2018-04-22T03:13:44.259Z,12.55
2018-04-22T03:14:44.236Z,12.55
2018-04-22T03:15:44.211Z,12.58
2018-04-22T03:16:44.189Z,12.63
2018-04-22T03:17:44.168Z,12.59
2018-04-22T03:18:44.142Z,12.63
2018-04-22T03:19:44.118Z,12.69
2018-04-22T03:20:44.089Z,12.52
2018-04-22T03:21:44.064Z,12.55
2018-04-22T03:22:44.044Z,12.61
2018-04-22T03:23:44.020Z,12.55
2018-04-22T03:24:43.991Z,12.61
2018-04-22T03:25:43.972Z,12.55
2018-04-22T03:26:43.940Z,12.55
2018-04-22T03:27:43.918Z,12.62
2018-04-22T03:28:43.898Z,12.61
2018-04-22T03:29:43.886Z,12.48
2018-04-22T03:30:43.844Z,12.62
2018-04-22T03:31:43.819Z,12.58
2018-04-22T03:32:43.800Z,12.51
2018-04-22T03:33:43.771Z,12.61
2018-04-22T03:34:43.749Z,12.47
2018-04-22T03:35:43.732Z,12.62
2018-04-22T03:36:43.694Z,12.58
2018-04-22T03:37:43.677Z,12.58
2018-04-22T03:38:43.658Z,12.62
2018-04-22T03:39:43.624Z,12.63
2018-04-22T03:40:43.608Z,12.55
2018-04-22T03:41:43.587Z,12.56
2018-04-22T03:42:43.556Z,12.58
2018-04-22T03:43:43.533Z,12.65
2018-04-22T03:44:43.502Z,12.69
2018-04-22T03:45:43.479Z,12.62
2018-04-22T03:46:43.457Z,12.61
2018-04-22T03:47:43.440Z,12.65
2018-04-22T03:48:43.425Z,12.58
2018-04-22T03:49:43.401Z,12.58
2018-04-22T03:50:43.358Z,12.62
2018-04-22T03:51:43.336Z,12.62
2018-04-22T03:52:43.315Z,12.63
2018-04-22T03:53:43.286Z,12.61
2018-04-22T03:54:43.260Z,12.69
2018-04-22T03:55:43.240Z,12.66
2018-04-22T03:56:43.209Z,12.63
2018-04-22T03:57:43.194Z,12.59
2018-04-22T03:58:43.180Z,12.66
2018-04-22T03:59:43.141Z,12.65
2018-04-22T04:00:43.117Z,12.59
2018-04-22T04:01:43.093Z,12.61
2018-04-22T04:02:43.071Z,12.59
2018-04-22T04:03:43.038Z,12.66
2018-04-22T04:04:43.025Z,12.59
2018-04-22T04:05:42.997Z,12.58
2018-04-22T04:06:42.966Z,12.65
2018-04-22T04:07:42.950Z,12.59
2018-04-22T04:08:43.575Z,12.58
2018-04-22T04:09:42.894Z,12.61
2018-04-22T04:10:42.870Z,12.62
2018-04-22T04:11:42.846Z,12.55
2018-04-22T04:12:42.821Z,12.55
2018-04-22T04:13:42.809Z,12.55
2018-04-22T04:14:42.772Z,12.58
2018-04-22T04:15:42.754Z,12.58
2018-04-22T04:16:42.727Z,12.63
2018-04-22T04:17:42.704Z,12.58
2018-04-22T04:18:42.677Z,12.62
2018-04-22T04:19:42.650Z,12.58
2018-04-22T04:20:42.631Z,12.62
2018-04-22T04:21:42.607Z,12.51
2018-04-22T04:22:42.577Z,12.48
2018-04-22T04:23:42.555Z,12.51
2018-04-22T04:24:42.528Z,12.44
2018-04-22T04:25:42.510Z,12.47
2018-04-22T04:26:42.481Z,12.52
2018-04-22T04:27:42.460Z,12.53
2018-04-22T04:28:42.433Z,12.45
2018-04-22T04:29:42.404Z,12.58
2018-04-22T04:30:42.418Z,12.53
2018-04-22T04:31:42.363Z,12.56
2018-04-22T04:32:42.332Z,12.66
2018-04-22T04:33:42.314Z,12.56
2018-04-22T04:34:42.297Z,12.65
2018-04-22T04:35:42.256Z,12.74
2018-04-22T04:36:42.241Z,12.69
2018-04-22T04:37:42.223Z,12.65
2018-04-22T04:38:42.190Z,12.62
2018-04-22T04:39:42.169Z,12.71
2018-04-22T04:40:42.140Z,12.70
2018-04-22T04:41:42.112Z,12.76
2018-04-22T04:42:42.105Z,12.73
2018-04-22T04:43:42.073Z,12.73
2018-04-22T04:44:42.046Z,12.84
2018-04-22T04:45:42.024Z,12.77
2018-04-22T04:46:41.989Z,12.86
2018-04-22T04:47:41.967Z,12.81
2018-04-22T04:48:41.946Z,12.91
2018-04-22T04:49:41.924Z,12.92
2018-04-22T04:50:41.897Z,12.92
2018-04-22T04:51:41.876Z,12.95
2018-04-22T04:52:41.844Z,12.86
2018-04-22T04:53:41.828Z,12.92
2018-04-22T04:54:41.798Z,12.91
2018-04-22T04:55:41.772Z,13.01
2018-04-22T04:56:41.761Z,12.99
2018-04-22T04:57:41.727Z,12.99
2018-04-22T04:58:41.703Z,13.06
2018-04-22T04:59:41.674Z,13.02
2018-04-22T05:00:41.655Z,13.09
2018-04-22T05:01:41.633Z,13.10
2018-04-22T05:02:41.604Z,13.07
2018-04-22T05:03:41.587Z,13.14
2018-04-22T05:04:41.559Z,13.19
2018-04-22T05:05:41.535Z,13.27
2018-04-22T05:06:41.511Z,13.13
2018-04-22T05:07:41.488Z,13.21
2018-04-22T05:08:41.462Z,13.25
2018-04-22T05:09:41.438Z,13.16
2018-04-22T05:10:41.465Z,13.24
2018-04-22T05:11:41.390Z,13.29
2018-04-22T05:12:41.369Z,13.28
2018-04-22T05:13:41.339Z,13.24
2018-04-22T05:14:41.312Z,13.14
2018-04-22T05:15:41.298Z,13.25
2018-04-22T05:16:41.271Z,13.27
2018-04-22T05:17:41.245Z,13.35
2018-04-22T05:18:41.234Z,13.16
2018-04-22T05:19:41.193Z,13.25
2018-04-22T05:20:41.189Z,13.27
2018-04-22T05:21:41.144Z,13.24
2018-04-22T05:22:41.127Z,13.28
2018-04-22T05:23:41.107Z,13.32
2018-04-22T05:24:41.075Z,13.37
2018-04-22T05:25:41.066Z,13.37
2018-04-22T05:26:41.033Z,13.40
2018-04-22T05:27:41.002Z,13.50
2018-04-22T05:28:40.985Z,13.51
2018-04-22T05:29:40.965Z,13.51
2018-04-22T05:30:40.937Z,13.53
2018-04-22T05:31:40.908Z,13.54
2018-04-22T05:32:40.882Z,13.58
2018-04-22T05:33:40.868Z,13.62
2018-04-22T05:34:40.832Z,13.65
2018-04-22T05:35:40.821Z,13.68
2018-04-22T05:36:40.813Z,13.66
2018-04-22T05:37:40.793Z,13.75
2018-04-22T05:38:40.743Z,13.68
2018-04-22T05:39:40.735Z,13.73
2018-04-22T05:40:40.697Z,13.93
2018-04-22T05:41:40.675Z,13.91
2018-04-22T05:42:40.659Z,13.87
2018-04-22T05:43:40.651Z,13.90
2018-04-22T05:44:40.599Z,13.91
2018-04-22T05:45:40.583Z,13.91
2018-04-22T05:46:40.562Z,13.91
2018-04-22T05:47:40.523Z,13.73
2018-04-22T05:48:40.560Z,13.86
2018-04-22T05:49:40.487Z,13.75
2018-04-22T05:50:40.491Z,13.75
2018-04-22T05:51:40.433Z,13.91
2018-04-22T05:52:40.425Z,13.84
2018-04-22T05:53:40.388Z,13.87
2018-04-22T05:54:40.364Z,13.88
2018-04-22T05:55:40.342Z,13.79
2018-04-22T05:56:40.332Z,13.84
2018-04-22T05:57:40.287Z,13.93
2018-04-22T05:58:40.276Z,14.03
2018-04-22T05:59:40.356Z,14.03
2018-04-22T06:00:40.222Z,14.03
2018-04-22T06:01:40.330Z,14.21
2018-04-22T06:02:40.179Z,14.03
2018-04-22T06:03:40.160Z,14.20
2018-04-22T06:04:40.120Z,14.19
2018-04-22T06:05:40.114Z,14.16
2018-04-22T06:06:40.089Z,14.09
2018-04-22T06:07:40.050Z,14.20
2018-04-22T06:08:40.060Z,14.24
2018-04-22T06:09:40.061Z,14.20
2018-04-22T06:10:40.016Z,14.30
2018-04-22T06:11:40.651Z,14.36
2018-04-22T06:12:39.934Z,14.44
2018-04-22T06:13:39.908Z,14.39
2018-04-22T06:14:39.883Z,14.44
2018-04-22T06:15:39.862Z,14.48
2018-04-22T06:16:39.851Z,14.42
2018-04-22T06:17:39.826Z,14.44
2018-04-22T06:18:39.793Z,14.44
2018-04-22T06:19:39.773Z,14.45
2018-04-22T06:20:39.766Z,14.41
2018-04-22T06:21:39.718Z,14.48
2018-04-22T06:22:39.709Z,14.59
2018-04-22T06:23:39.667Z,14.59
2018-04-22T06:24:39.647Z,14.66
2018-04-22T06:25:39.620Z,14.69
2018-04-22T06:26:39.609Z,14.75
2018-04-22T06:27:39.579Z,14.70
2018-04-22T06:28:39.553Z,14.82
2018-04-22T06:29:39.538Z,14.86
2018-04-22T06:30:39.508Z,14.87
2018-04-22T06:31:39.492Z,14.83
2018-04-22T06:32:39.463Z,14.90
2018-04-22T06:33:39.440Z,15.00
2018-04-22T06:34:39.411Z,15.19
2018-04-22T06:35:39.437Z,15.18
2018-04-22T06:36:39.425Z,15.12
2018-04-22T06:37:39.341Z,15.22
2018-04-22T06:38:39.318Z,15.34
2018-04-22T06:39:39.293Z,15.35
2018-04-22T06:40:39.272Z,15.45
2018-04-22T06:41:39.271Z,15.56
2018-04-22T06:42:39.220Z,15.63
2018-04-22T06:43:39.207Z,15.77
2018-04-22T06:44:39.178Z,15.83
2018-04-22T06:45:39.157Z,15.84
2018-04-22T06:46:39.134Z,15.95
2018-04-22T06:47:39.109Z,15.98
2018-04-22T06:48:39.104Z,16.18
2018-04-22T06:49:39.060Z,16.14
2018-04-22T06:50:39.036Z,16.21
2018-04-22T06:51:39.021Z,16.18
2018-04-22T06:52:38.994Z,16.18
2018-04-22T06:53:38.966Z,16.22
2018-04-22T06:54:38.949Z,16.27
2018-04-22T06:55:38.927Z,16.33
2018-04-22T06:56:38.909Z,16.45
2018-04-22T06:57:38.874Z,16.32
2018-04-22T06:58:38.858Z,16.40
2018-04-22T06:59:38.830Z,16.27
2018-04-22T07:00:38.813Z,16.30
2018-04-22T07:01:38.784Z,16.26
2018-04-22T07:02:38.764Z,16.25
2018-04-22T07:03:38.744Z,16.22
2018-04-22T07:04:38.717Z,16.32
2018-04-22T07:05:38.698Z,16.33
2018-04-22T07:06:38.674Z,16.40
2018-04-22T07:07:38.651Z,16.39
2018-04-22T07:08:38.629Z,16.39
2018-04-22T07:09:38.619Z,16.44
2018-04-22T07:10:38.588Z,16.36
2018-04-22T07:11:38.559Z,16.45
2018-04-22T07:12:38.539Z,16.51
2018-04-22T07:13:38.515Z,16.54
2018-04-22T07:14:38.486Z,16.55
2018-04-22T07:15:38.463Z,16.55
2018-04-22T07:16:38.450Z,16.65
2018-04-22T07:17:38.418Z,16.65
2018-04-22T07:18:38.393Z,16.81
2018-04-22T07:19:38.380Z,16.76
2018-04-22T07:20:38.352Z,16.81
2018-04-22T07:21:38.331Z,16.84
2018-04-22T07:22:38.307Z,16.87
2018-04-22T07:23:38.286Z,16.87
2018-04-22T07:24:38.255Z,16.94
2018-04-22T07:25:38.239Z,16.94
2018-04-22T07:26:38.213Z,17.02
2018-04-22T07:27:38.193Z,16.92
2018-04-22T07:28:38.173Z,17.05
2018-04-22T07:29:38.144Z,17.10
2018-04-22T07:30:38.125Z,17.10
2018-04-22T07:31:38.106Z,17.10
2018-04-22T07:32:38.075Z,17.20
2018-04-22T07:33:38.060Z,17.15
2018-04-22T07:34:38.030Z,17.20
2018-04-22T07:35:38.011Z,17.15
2018-04-22T07:36:37.989Z,17.20
2018-04-22T07:37:37.962Z,17.20
2018-04-22T07:38:37.940Z,17.21
2018-04-22T07:39:37.914Z,17.38
2018-04-22T07:40:37.902Z,17.31
2018-04-22T07:41:37.882Z,17.32
2018-04-22T07:42:37.902Z,17.36
2018-04-22T07:43:37.829Z,17.32
2018-04-22T07:44:37.805Z,17.31
2018-04-22T07:45:37.783Z,17.42
2018-04-22T07:46:37.763Z,17.46
2018-04-22T07:47:37.736Z,17.62
2018-04-22T07:48:37.736Z,17.50
2018-04-22T07:49:37.694Z,17.60
2018-04-22T07:50:37.676Z,17.63
2018-04-22T07:51:37.651Z,17.66
2018-04-22T07:52:37.624Z,17.73
2018-04-22T07:53:37.604Z,17.71
2018-04-22T07:54:37.576Z,17.76
2018-04-22T07:55:37.581Z,17.79
2018-04-22T07:56:37.539Z,17.81
2018-04-22T07:57:37.517Z,17.84
2018-04-22T07:58:37.491Z,17.86
2018-04-22T07:59:37.470Z,17.94
2018-04-22T08:00:37.443Z,17.95
2018-04-22T08:01:37.423Z,17.99
2018-04-22T08:02:37.411Z,18.02
2018-04-22T08:03:37.378Z,18.14
2018-04-22T08:04:37.365Z,18.13
2018-04-22T08:05:37.345Z,18.13
2018-04-22T08:06:37.317Z,18.23
2018-04-22T08:07:37.297Z,18.38
2018-04-22T08:08:37.273Z,18.36
2018-04-22T08:09:37.246Z,18.39
2018-04-22T08:10:37.235Z,18.47
2018-04-22T08:11:37.206Z,18.50
2018-04-22T08:12:37.179Z,18.53
2018-04-22T08:13:37.166Z,18.63
2018-04-22T08:14:37.134Z,18.68
2018-04-22T08:15:37.117Z,18.65
2018-04-22T08:16:37.100Z,18.74
2018-04-22T08:17:37.076Z,18.78
2018-04-22T08:18:37.045Z,18.75
2018-04-22T08:19:37.030Z,18.75
2018-04-22T08:20:37.010Z,18.81
2018-04-22T08:21:36.990Z,18.82
2018-04-22T08:22:36.967Z,18.86
2018-04-22T08:23:36.941Z,18.93
2018-04-22T08:24:36.917Z,18.97
2018-04-22T08:25:36.896Z,19.10
2018-04-22T08:26:36.875Z,19.06
2018-04-22T08:27:36.851Z,19.17
2018-04-22T08:28:36.834Z,19.15
2018-04-22T08:29:36.812Z,19.23
2018-04-22T08:30:36.789Z,19.16
2018-04-22T08:31:36.766Z,19.19
2018-04-22T08:32:36.745Z,19.30
2018-04-22T08:33:36.719Z,19.17
2018-04-22T08:34:36.711Z,19.27
2018-04-22T08:35:36.680Z,19.28
2018-04-22T08:36:36.655Z,19.35
2018-04-22T08:37:36.644Z,19.37
2018-04-22T08:38:36.612Z,19.37
2018-04-22T08:39:36.590Z,19.53
2018-04-22T08:40:36.576Z,19.53
2018-04-22T08:41:36.555Z,19.55
2018-04-22T08:42:36.574Z,19.52
2018-04-22T08:43:36.511Z,19.53
2018-04-22T08:44:36.492Z,19.64
2018-04-22T08:45:36.464Z,19.68
2018-04-22T08:46:36.444Z,19.71
2018-04-22T08:47:36.423Z,19.79
2018-04-22T08:48:36.407Z,19.75
2018-04-22T08:49:36.376Z,19.80
2018-04-22T08:50:36.406Z,19.78
2018-04-22T08:51:36.333Z,19.78
2018-04-22T08:52:36.342Z,19.90
2018-04-22T08:53:36.293Z,19.92
2018-04-22T08:54:36.285Z,20.00
2018-04-22T08:55:36.258Z,19.89
2018-04-22T08:56:36.230Z,19.89
2018-04-22T08:57:36.210Z,19.90
2018-04-22T08:58:36.188Z,20.00
2018-04-22T08:59:36.176Z,19.97
2018-04-22T09:00:36.143Z,20.08
2018-04-22T09:01:36.134Z,20.11
2018-04-22T09:02:36.103Z,20.08
2018-04-22T09:03:36.080Z,20.18
2018-04-22T09:04:36.056Z,20.22
2018-04-22T09:05:36.033Z,20.32
2018-04-22T09:06:36.019Z,20.29
2018-04-22T09:07:36.001Z,20.40
2018-04-22T09:08:35.978Z,20.42
2018-04-22T09:09:35.956Z,20.44
2018-04-22T09:10:35.929Z,20.42
2018-04-22T09:11:35.912Z,20.54
2018-04-22T09:12:35.891Z,20.58
2018-04-22T09:13:35.874Z,20.64
2018-04-22T09:14:35.844Z,20.71
2018-04-22T09:15:35.830Z,20.64
2018-04-22T09:16:35.800Z,20.85
2018-04-22T09:17:35.804Z,20.96
2018-04-22T09:18:35.759Z,20.90
2018-04-22T09:19:35.744Z,20.97
2018-04-22T09:20:35.720Z,21.00
2018-04-22T09:21:35.712Z,20.94
2018-04-22T09:22:35.680Z,20.94
2018-04-22T09:23:35.660Z,21.01
2018-04-22T09:24:35.638Z,21.12
2018-04-22T09:25:35.617Z,21.11
2018-04-22T09:26:35.591Z,21.08
2018-04-22T09:27:35.571Z,21.16
2018-04-22T09:28:35.561Z,21.12
2018-04-22T09:29:35.528Z,21.04
2018-04-22T09:30:35.516Z,21.11
2018-04-22T09:31:35.488Z,21.22
2018-04-22T09:32:35.483Z,21.22
2018-04-22T09:33:35.454Z,21.09
2018-04-22T09:34:35.434Z,21.22
2018-04-22T09:35:35.415Z,21.31
2018-04-22T09:36:35.397Z,21.22
2018-04-22T09:37:35.376Z,21.30
2018-04-22T09:38:35.351Z,21.37
2018-04-22T09:39:35.333Z,21.25
2018-04-22T09:40:35.311Z,21.34
2018-04-22T09:41:35.296Z,21.41
2018-04-22T09:42:35.261Z,21.40
2018-04-22T09:43:35.241Z,21.52
2018-04-22T09:44:35.229Z,21.52
2018-04-22T09:45:35.204Z,21.48
2018-04-22T09:46:35.186Z,21.61
2018-04-22T09:47:35.176Z,21.53
2018-04-22T09:48:35.143Z,21.45
2018-04-22T09:49:35.123Z,21.46
2018-04-22T09:50:35.106Z,21.61
2018-04-22T09:51:35.083Z,21.58
2018-04-22T09:52:35.064Z,21.67
2018-04-22T09:53:35.046Z,21.67
2018-04-22T09:54:35.029Z,21.78
2018-04-22T09:55:35.009Z,21.89
2018-04-22T09:56:34.978Z,21.86
2018-04-22T09:57:34.959Z,21.92
2018-04-22T09:58:34.940Z,22.04
2018-04-22T09:59:34.914Z,22.00
2018-04-22T10:00:34.896Z,22.02
2018-04-22T10:01:34.878Z,22.04
2018-04-22T10:02:34.876Z,22.07
2018-04-22T10:03:34.839Z,22.09
2018-04-22T10:04:34.818Z,22.07
2018-04-22T10:05:34.802Z,22.04
2018-04-22T10:06:34.773Z,22.07
2018-04-22T10:07:34.755Z,22.05
2018-04-22T10:08:34.739Z,22.09
2018-04-22T10:09:34.718Z,22.09
2018-04-22T10:10:34.694Z,22.20
2018-04-22T10:11:34.677Z,22.09
2018-04-22T10:12:34.662Z,22.20
2018-04-22T10:13:34.644Z,22.22
2018-04-22T10:14:34.622Z,22.24
2018-04-22T10:15:34.592Z,22.24
2018-04-22T10:16:34.580Z,22.18
2018-04-22T10:17:34.565Z,22.27
2018-04-22T10:18:34.540Z,22.27
2018-04-22T10:19:34.521Z,22.24
2018-04-22T10:20:34.501Z,22.24
2018-04-22T10:21:34.493Z,22.34
2018-04-22T10:22:34.456Z,22.36
2018-04-22T10:23:34.439Z,22.36
2018-04-22T10:24:34.420Z,22.42
2018-04-22T10:25:34.402Z,22.48
2018-04-22T10:26:34.384Z,22.48
2018-04-22T10:27:34.359Z,22.45
2018-04-22T10:28:34.344Z,22.45
2018-04-22T10:29:34.324Z,22.54
2018-04-22T10:30:34.304Z,22.57
2018-04-22T10:31:34.280Z,22.54
2018-04-22T10:32:34.264Z,22.63
2018-04-22T10:33:34.244Z,22.61
2018-04-22T10:34:34.295Z,22.61
2018-04-22T10:35:34.209Z,22.64
2018-04-22T10:36:34.184Z,22.79
2018-04-22T10:37:34.161Z,22.73
2018-04-22T10:38:34.140Z,22.81
2018-04-22T10:39:34.120Z,22.92
2018-04-22T10:40:34.128Z,22.85
2018-04-22T10:41:34.093Z,23.01
2018-04-22T10:42:34.068Z,23.01
2018-04-22T10:43:34.040Z,23.14
2018-04-22T10:44:34.021Z,23.09
2018-04-22T10:45:34.002Z,23.15
2018-04-22T10:46:33.986Z,23.34
2018-04-22T10:47:33.970Z,23.24
2018-04-22T10:48:33.947Z,23.29
2018-04-22T10:49:33.931Z,23.42
2018-04-22T10:50:33.909Z,23.35
2018-04-22T10:51:33.893Z,23.44
2018-04-22T10:52:33.873Z,23.38
2018-04-22T10:53:33.853Z,23.45
2018-04-22T10:54:33.831Z,23.45
2018-04-22T10:55:33.824Z,23.42
2018-04-22T10:56:33.793Z,23.38
2018-04-22T10:57:33.778Z,23.53
2018-04-22T10:58:33.756Z,23.47
2018-04-22T10:59:33.739Z,23.62
2018-04-22T11:00:33.723Z,23.56
2018-04-22T11:01:33.704Z,23.62
2018-04-22T11:02:33.687Z,23.62
2018-04-22T11:03:33.668Z,23.71
2018-04-22T11:04:33.664Z,23.70
2018-04-22T11:05:34.185Z,23.79
2018-04-22T11:06:33.610Z,23.85
2018-04-22T11:07:33.586Z,23.89
2018-04-22T11:08:33.567Z,23.82
2018-04-22T11:09:33.549Z,23.84
2018-04-22T11:10:33.530Z,23.92
2018-04-22T11:11:33.517Z,24.04
2018-04-22T11:12:33.497Z,24.02
2018-04-22T11:13:33.478Z,24.04
2018-04-22T11:14:33.459Z,24.04
2018-04-22T11:15:33.441Z,24.11
2018-04-22T11:16:33.413Z,24.04
2018-04-22T11:17:33.404Z,24.22
2018-04-22T11:18:33.384Z,24.18
2018-04-22T11:19:33.366Z,24.19
2018-04-22T11:20:33.349Z,24.19
2018-04-22T11:21:33.328Z,24.21
2018-04-22T11:22:33.311Z,24.26
2018-04-22T11:23:33.292Z,24.22
2018-04-22T11:24:33.271Z,24.27
2018-04-22T11:25:33.253Z,24.30
2018-04-22T11:26:33.233Z,24.27
2018-04-22T11:27:33.221Z,24.32
2018-04-22T11:28:33.202Z,24.21
2018-04-22T11:29:33.173Z,24.44
2018-04-22T11:30:33.165Z,24.42
2018-04-22T11:31:33.145Z,24.48
2018-04-22T11:32:33.129Z,24.54
2018-04-22T11:33:33.105Z,24.55
2018-04-22T11:34:33.091Z,24.55
2018-04-22T11:35:33.079Z,24.61
2018-04-22T11:36:33.056Z,24.64
2018-04-22T11:37:33.027Z,24.63
2018-04-22T11:38:33.015Z,24.71
2018-04-22T11:39:32.992Z,24.74
2018-04-22T11:40:32.979Z,24.83
2018-04-22T11:41:32.962Z,24.97
2018-04-22T11:42:32.945Z,25.09
2018-04-22T11:43:32.930Z,25.20
2018-04-22T11:44:32.905Z,25.26
2018-04-22T11:45:32.892Z,25.23
2018-04-22T11:46:32.871Z,25.38
2018-04-22T11:47:32.851Z,25.47
2018-04-22T11:48:32.919Z,25.39
2018-04-22T11:49:32.815Z,25.38
2018-04-22T11:50:32.799Z,25.41
2018-04-22T11:51:32.783Z,25.34
2018-04-22T11:52:32.768Z,25.33
2018-04-22T11:53:32.775Z,25.30
2018-04-22T11:54:32.724Z,25.27
2018-04-22T11:55:32.714Z,25.33
2018-04-22T11:56:32.695Z,25.32
2018-04-22T11:57:32.673Z,25.29
2018-04-22T11:58:32.660Z,25.34
2018-04-22T11:59:32.689Z,25.37
2018-04-22T12:00:32.625Z,25.34
2018-04-22T12:01:32.604Z,25.38
2018-04-22T12:02:32.596Z,25.34
2018-04-22T12:03:32.568Z,25.26
2018-04-22T12:04:32.561Z,25.27
2018-04-22T12:05:32.536Z,25.30
2018-04-22T12:06:32.534Z,25.23
2018-04-22T12:07:32.501Z,25.38
2018-04-22T12:08:32.485Z,25.38
2018-04-22T12:09:32.476Z,25.33
2018-04-22T12:10:32.451Z,25.38
2018-04-22T12:11:32.436Z,25.33
2018-04-22T12:12:32.418Z,25.32
2018-04-22T12:13:32.410Z,25.45
2018-04-22T12:14:32.374Z,25.49
2018-04-22T12:15:32.363Z,25.49
2018-04-22T12:16:32.345Z,25.47
2018-04-22T12:17:32.337Z,25.47
2018-04-22T12:18:32.309Z,25.51
2018-04-22T12:19:32.290Z,25.64
2018-04-22T12:20:32.276Z,25.57
2018-04-22T12:21:32.264Z,25.62
2018-04-22T12:22:32.245Z,25.59
2018-04-22T12:23:32.246Z,25.67
2018-04-22T12:24:32.207Z,25.69
2018-04-22T12:25:32.189Z,25.69
2018-04-22T12:26:32.177Z,25.71
2018-04-22T12:27:32.153Z,25.71
2018-04-22T12:28:32.142Z,25.75
2018-04-22T12:29:32.120Z,25.69
2018-04-22T12:30:32.103Z,25.63
2018-04-22T12:31:32.083Z,25.64
2018-04-22T12:32:32.068Z,25.67
2018-04-22T12:33:32.068Z,25.69
2018-04-22T12:34:32.055Z,25.62
2018-04-22T12:35:32.015Z,25.64
2018-04-22T12:36:32.003Z,25.67
2018-04-22T12:37:31.986Z,25.74
2018-04-22T12:38:31.969Z,25.67
2018-04-22T12:39:31.951Z,25.76
2018-04-22T12:40:31.926Z,25.82
2018-04-22T12:41:31.997Z,25.78
2018-04-22T12:42:31.903Z,25.78
2018-04-22T12:43:31.895Z,25.85
2018-04-22T12:44:31.864Z,25.86
2018-04-22T12:45:31.857Z,25.79
2018-04-22T12:46:31.832Z,25.88
2018-04-22T12:47:31.814Z,25.89
2018-04-22T12:48:31.800Z,25.96
2018-04-22T12:49:31.880Z,26.03
2018-04-22T12:50:31.782Z,25.97
2018-04-22T12:51:31.763Z,25.96
2018-04-22T12:52:31.781Z,26.07